Time;durP1;ratioP1;P1;durP2;ratioP2;P2;SDS_P1;SDS_P2;PMS_P1;PMS_P2;Temp;Humidity;BMP_temperature;BMP_pressure;BME280_temperature;BME280_humidity;BME280_pressure;Samples;Min_cycle;Max_cycle;Signal;HPM_P1;HPM_P2
2023/04/23 13:04:44;;;;;;;7.75;1.40;;;13.10;99.90;;;;;;5130080;27;20167;-70
2023/04/23 13:07:10;;;;;;;3.80;1.35;;;13.00;99.90;;;;;;5106838;28;20036;-69
2023/04/23 13:09:36;;;;;;;6.90;1.58;;;12.90;99.90;;;;;;5114604;28;20036;-67
2023/04/23 13:12:03;;;;;;;7.93;1.92;;;12.90;99.90;;;;;;5096698;28;20024;-69
2023/04/23 13:14:30;;;;;;;6.13;1.70;;;12.90;99.90;;;;;;5096582;28;20309;-67
2023/04/23 13:16:57;;;;;;;6.53;1.77;;;12.90;99.90;;;;;;5114207;28;20028;-68
2023/04/23 13:19:23;;;;;;;6.55;1.40;;;12.90;99.90;;;;;;5114246;28;20378;-67
2023/04/23 13:21:49;;;;;;;6.88;1.65;;;12.90;99.90;;;;;;5114530;28;20280;-68
2023/04/23 13:24:15;;;;;;;6.30;1.83;;;12.80;99.90;;;;;;5079305;28;20065;-65
2023/04/23 13:26:42;;;;;;;5.63;1.48;;;12.90;99.90;;;;;;5094784;28;20087;-66
2023/04/23 13:29:08;;;;;;;3.30;1.23;;;12.80;99.90;;;;;;5095998;28;20068;-67
2023/04/23 13:31:33;;;;;;;5.32;1.58;;;12.80;99.90;;;;;;5096323;28;20358;-66
2023/04/23 13:34:01;;;;;;;3.17;1.25;;;12.80;99.90;;;;;;5113944;28;20032;-64
2023/04/23 13:36:27;;;;;;;5.35;1.17;;;12.90;99.90;;;;;;5079563;28;20032;-66
2023/04/23 13:38:53;;;;;;;3.92;1.40;;;12.80;99.90;;;;;;5114679;28;20032;-67
2023/04/23 13:41:19;;;;;;;2.90;1.25;;;12.90;99.90;;;;;;5079287;28;20052;-67
2023/04/23 13:43:45;;;;;;;5.75;1.75;;;12.90;99.90;;;;;;5078980;28;20027;-65
2023/04/23 13:46:12;;;;;;;5.25;1.50;;;13.00;99.90;;;;;;5113618;28;20032;-67
2023/04/23 13:48:38;;;;;;;8.13;1.75;;;13.10;99.90;;;;;;5079238;28;20302;-68
2023/04/23 13:51:04;;;;;;;3.35;1.48;;;13.30;99.90;;;;;;5079386;28;20030;-70
2023/04/23 13:53:29;;;;;;;2.33;1.55;;;13.20;99.90;;;;;;5095673;28;20132;-72
2023/04/23 13:55:56;;;;;;;3.10;1.40;;;13.20;99.90;;;;;;5079262;28;20418;-71
2023/04/23 13:58:22;;;;;;;4.28;1.63;;;13.30;99.90;;;;;;5095916;28;20027;-71
2023/04/23 14:01:29;;;;;;;5.00;1.58;;;13.40;99.90;;;;;;5113418;28;20028;-68
2023/04/23 14:03:58;;;;;;;4.50;1.40;;;13.30;99.90;;;;;;5078032;28;20089;-69
2023/04/23 14:06:24;;;;;;;3.35;1.33;;;13.40;99.90;;;;;;5062684;28;20027;-68
2023/04/23 14:08:50;;;;;;;2.90;1.10;;;13.50;99.90;;;;;;5084281;28;20043;-70
2023/04/23 14:11:16;;;;;;;2.40;1.30;;;13.60;99.90;;;;;;5113020;28;20394;-71
2023/04/23 14:13:41;;;;;;;6.25;1.38;;;13.60;99.90;;;;;;5095277;28;20032;-71
2023/04/23 14:16:07;;;;;;;3.67;1.70;;;13.70;99.90;;;;;;5098495;28;20039;-70
2023/04/23 14:18:33;;;;;;;4.55;1.63;;;14.00;99.90;;;;;;5080039;28;20040;-72
2023/04/23 14:20:59;;;;;;;3.08;1.50;;;14.00;99.90;;;;;;5065266;28;20032;-72
2023/04/23 14:23:25;;;;;;;4.47;1.63;;;13.90;99.90;;;;;;5081929;28;20051;-66
2023/04/23 14:25:57;;;;;;;3.83;1.65;;;14.00;99.90;;;;;;5081946;28;20398;-70
2023/04/23 14:28:32;;;;;;;3.25;1.35;;;13.90;99.90;;;;;;5082056;28;20051;-66
2023/04/23 14:31:00;;;;;;;2.85;1.23;;;14.10;99.90;;;;;;5082083;28;20103;-65
2023/04/23 14:33:26;;;;;;;5.13;1.63;;;13.90;99.90;;;;;;5099376;28;20295;-67
2023/04/23 14:35:52;;;;;;;1.95;1.23;;;13.70;99.90;;;;;;5081886;28;20032;-70
2023/04/23 14:38:18;;;;;;;3.95;1.52;;;13.80;99.90;;;;;;5081663;28;20044;-69
2023/04/23 14:40:44;;;;;;;2.15;1.50;;;13.90;99.90;;;;;;5081909;28;20422;-68
2023/04/23 14:43:09;;;;;;;3.17;1.58;;;14.10;99.90;;;;;;5099206;28;20028;-70
2023/04/23 14:45:35;;;;;;;2.15;1.27;;;14.00;99.90;;;;;;5099357;28;20115;-71
2023/04/23 14:48:01;;;;;;;2.60;1.20;;;14.30;99.90;;;;;;5099290;28;20024;-73
2023/04/23 14:50:27;;;;;;;2.42;1.30;;;14.30;99.90;;;;;;5082320;28;20032;-70
2023/04/23 14:52:53;;;;;;;2.92;1.30;;;14.30;99.90;;;;;;5081681;28;20169;-70
2023/04/23 14:55:21;;;;;;;4.93;1.60;;;14.40;99.90;;;;;;5099087;28;20293;-70
2023/04/23 14:57:47;;;;;;;2.72;1.20;;;14.40;99.90;;;;;;5099083;28;20089;-73
2023/04/23 15:00:14;;;;;;;6.18;1.60;;;14.50;99.90;;;;;;5081211;28;20032;-70
2023/04/23 15:02:41;;;;;;;2.88;1.27;;;14.70;99.90;;;;;;5080395;28;20193;-72
2023/04/23 15:05:10;;;;;;;2.75;1.50;;;15.00;99.90;;;;;;5096384;28;20052;-74
2023/04/23 15:07:37;;;;;;;3.60;1.50;;;15.10;99.90;;;;;;5098339;28;20039;-72
2023/04/23 15:10:08;;;;;;;3.97;1.60;;;15.20;99.90;;;;;;5098832;28;20032;-74
2023/04/23 15:12:40;;;;;;;5.03;1.42;;;15.30;99.90;;;;;;5064533;28;20028;-73
2023/04/23 15:15:20;;;;;;;2.45;1.30;;;15.70;99.90;;;;;;5098813;28;20121;-73
2023/04/23 15:17:47;;;;;;;3.22;1.38;;;16.40;99.90;;;;;;5080981;28;20088;-74
2023/04/23 15:20:13;;;;;;;4.75;1.65;;;16.30;99.90;;;;;;5098684;28;20035;-73
2023/04/23 15:22:39;;;;;;;3.38;1.45;;;16.40;99.90;;;;;;5081056;28;20302;-73
2023/04/23 15:25:05;;;;;;;3.10;1.50;;;15.90;99.90;;;;;;5080904;28;20111;-73
2023/04/23 15:27:31;;;;;;;4.93;1.58;;;15.80;99.90;;;;;;5079832;28;20032;-72
2023/04/23 15:29:56;;;;;;;2.05;1.33;;;15.70;99.90;;;;;;5064228;28;20043;-72
2023/04/23 15:32:22;;;;;;;3.42;2.03;;;15.50;99.90;;;;;;5098612;28;20280;-73
2023/04/23 15:34:48;;;;;;;4.10;1.70;;;15.40;99.90;;;;;;5081452;28;20036;-73
2023/04/23 15:37:14;;;;;;;3.53;1.70;;;15.40;99.90;;;;;;5080723;28;20039;-73
2023/04/23 15:39:40;;;;;;;3.00;1.70;;;15.40;99.90;;;;;;5098403;28;20357;-73
2023/04/23 15:42:06;;;;;;;2.30;1.40;;;15.30;99.90;;;;;;5080414;28;20108;-74
2023/04/23 15:44:32;;;;;;;2.67;1.77;;;16.20;99.90;;;;;;5080612;28;20036;-71
2023/04/23 15:47:00;;;;;;;3.40;1.70;;;17.10;95.00;;;;;;5080547;28;20046;-73
2023/04/23 15:49:26;;;;;;;2.13;1.30;;;16.80;92.90;;;;;;5098019;28;20032;-73
2023/04/23 15:51:55;;;;;;;5.20;1.65;;;16.80;94.90;;;;;;5080800;28;20024;-71
2023/04/23 15:54:20;;;;;;;4.15;1.73;;;16.80;93.90;;;;;;5080506;28;20028;-73
2023/04/23 15:56:46;;;;;;;2.03;1.48;;;16.60;95.00;;;;;;5098310;28;20028;-70
2023/04/23 15:59:12;;;;;;;3.67;1.55;;;16.40;95.00;;;;;;5063671;28;20117;-69
2023/04/23 16:01:38;;;;;;;6.20;1.75;;;16.10;99.00;;;;;;5080361;28;20046;-70
2023/04/23 16:04:04;;;;;;;4.55;1.88;;;15.90;99.90;;;;;;5080144;28;20048;-71
2023/04/23 16:06:30;;;;;;;3.00;1.58;;;15.60;99.90;;;;;;5080009;28;20042;-70
2023/04/23 16:08:56;;;;;;;4.63;1.75;;;15.40;99.90;;;;;;5097827;28;20032;-70
2023/04/23 16:11:26;;;;;;;3.67;1.95;;;15.30;99.90;;;;;;5097228;28;20090;-67
2023/04/23 16:13:52;;;;;;;5.47;1.75;;;15.00;99.90;;;;;;5097672;28;20268;-69
2023/04/23 16:16:19;;;;;;;2.78;1.70;;;14.90;99.90;;;;;;5080570;28;20031;-70
2023/04/23 16:18:45;;;;;;;3.80;2.10;;;15.00;99.90;;;;;;5097455;28;20116;-67
2023/04/23 16:21:11;;;;;;;3.13;1.92;;;15.00;99.90;;;;;;5097903;28;20111;-69
2023/04/23 16:23:36;;;;;;;3.17;1.80;;;14.80;99.90;;;;;;5079686;28;20089;-68
2023/04/23 16:26:07;;;;;;;4.15;1.98;;;14.80;99.90;;;;;;5079824;28;20036;-66
2023/04/23 16:28:34;;;;;;;2.75;1.80;;;14.90;99.90;;;;;;5080519;28;20052;-68
2023/04/23 16:30:59;;;;;;;3.65;1.77;;;14.90;99.90;;;;;;5079708;28;20044;-67
2023/04/23 16:33:26;;;;;;;3.10;2.08;;;14.90;99.90;;;;;;5079653;28;20075;-71
2023/04/23 16:35:52;;;;;;;3.45;1.95;;;14.70;99.90;;;;;;5097783;28;20067;-67
2023/04/23 16:38:18;;;;;;;3.35;2.05;;;14.70;99.90;;;;;;5062884;28;20131;-69
2023/04/23 16:40:46;;;;;;;4.53;1.85;;;14.80;99.90;;;;;;5080255;28;20050;-69
2023/04/23 16:43:12;;;;;;;3.00;1.90;;;14.80;99.90;;;;;;5079437;28;20055;-72
2023/04/23 16:45:38;;;;;;;2.25;1.80;;;14.60;99.90;;;;;;5096344;28;20042;-69
2023/04/23 16:48:04;;;;;;;3.40;2.10;;;14.50;99.90;;;;;;5096970;28;20115;-70
2023/04/23 16:50:29;;;;;;;3.33;1.83;;;14.30;99.90;;;;;;5079792;28;20033;-70
2023/04/23 16:52:55;;;;;;;2.75;1.75;;;14.30;99.90;;;;;;5079833;28;20032;-67
2023/04/23 16:55:21;;;;;;;2.25;1.58;;;14.40;99.90;;;;;;5079558;28;20061;-70
2023/04/23 16:57:47;;;;;;;2.95;1.75;;;14.30;99.90;;;;;;5113110;28;20032;-71
2023/04/23 17:00:15;;;;;;;3.45;1.60;;;14.30;99.90;;;;;;5078476;28;20051;-69
2023/04/23 17:02:41;;;;;;;1.52;1.42;;;14.30;99.90;;;;;;5048900;28;20055;-70
2023/04/23 17:05:08;;;;;;;2.70;1.73;;;14.20;99.90;;;;;;5056515;28;20112;-71
2023/04/23 17:07:34;;;;;;;3.70;1.83;;;14.20;99.90;;;;;;5055511;28;20033;-68
2023/04/23 17:10:00;;;;;;;4.13;2.03;;;14.30;99.90;;;;;;5056403;28;20086;-71
2023/04/23 17:12:26;;;;;;;3.22;1.50;;;14.30;99.90;;;;;;5057011;28;20142;-71
2023/04/23 17:14:52;;;;;;;2.58;1.10;;;14.30;99.90;;;;;;5056166;28;20021;-72
2023/04/23 17:17:18;;;;;;;2.15;1.58;;;14.00;99.90;;;;;;5056159;28;20029;-70
2023/04/23 17:19:47;;;;;;;0.88;0.85;;;13.50;99.90;;;;;;5039121;28;20304;-70
2023/04/23 17:22:12;;;;;;;1.00;0.90;;;13.20;99.90;;;;;;5055398;28;20029;-71
2023/04/23 17:24:38;;;;;;;1.10;0.80;;;13.30;99.90;;;;;;5055720;28;20044;-70
2023/04/23 17:27:04;;;;;;;0.70;0.70;;;13.20;99.90;;;;;;5055319;28;20124;-71
2023/04/23 17:29:30;;;;;;;0.95;0.90;;;13.30;99.90;;;;;;5022626;28;20450;-71
2023/04/23 17:31:57;;;;;;;0.95;0.77;;;13.30;99.90;;;;;;5055351;28;20029;-72
2023/04/23 17:34:22;;;;;;;0.82;0.80;;;13.30;99.90;;;;;;5055802;28;20029;-70
2023/04/23 17:36:48;;;;;;;1.02;0.60;;;13.10;99.90;;;;;;5038807;28;20037;-72
2023/04/23 17:39:18;;;;;;;0.95;0.70;;;12.90;99.90;;;;;;5055984;28;20095;-72
2023/04/23 17:41:44;;;;;;;1.10;0.80;;;12.70;99.90;;;;;;5055978;28;20083;-70
2023/04/23 17:44:10;;;;;;;0.60;0.60;;;12.70;99.90;;;;;;5038638;28;20043;-69
2023/04/23 17:46:36;;;;;;;1.55;0.60;;;12.60;99.90;;;;;;5055674;28;20400;-68
2023/04/23 17:49:02;;;;;;;1.23;0.45;;;12.30;99.90;;;;;;5055226;28;20036;-68
2023/04/23 17:51:27;;;;;;;2.63;0.50;;;12.20;99.90;;;;;;5058749;28;20106;-66
2023/04/23 17:53:53;;;;;;;0.50;0.40;;;12.10;99.90;;;;;;5059777;28;20033;-68
2023/04/23 17:56:19;;;;;;;0.50;0.50;;;12.10;99.90;;;;;;5058803;28;20400;-69
2023/04/23 17:58:45;;;;;;;0.90;0.50;;;12.10;99.90;;;;;;5059143;28;20041;-70
2023/04/23 18:01:11;;;;;;;0.50;0.40;;;12.10;99.90;;;;;;5042355;28;20384;-70
2023/04/23 18:03:37;;;;;;;1.38;0.47;;;12.10;99.90;;;;;;5058534;28;20079;-68
2023/04/23 18:06:03;;;;;;;0.80;0.32;;;12.00;99.90;;;;;;5059755;28;20031;-69
2023/04/23 18:08:29;;;;;;;0.68;0.55;;;11.90;99.90;;;;;;5059057;28;20036;-69
2023/04/23 18:10:55;;;;;;;0.73;0.50;;;11.80;99.90;;;;;;5059085;28;20102;-70
2023/04/23 18:13:21;;;;;;;2.05;0.63;;;11.60;99.90;;;;;;5058467;28;20415;-69
2023/04/23 18:15:48;;;;;;;0.57;0.50;;;11.50;99.90;;;;;;5058793;28;20091;-68
2023/04/23 18:18:17;;;;;;;2.63;0.63;;;11.40;99.90;;;;;;5058661;28;20055;-69
2023/04/23 18:20:44;;;;;;;0.63;0.63;;;11.30;99.90;;;;;;5058618;28;20043;-69
2023/04/23 18:23:11;;;;;;;1.75;0.70;;;11.20;99.90;;;;;;5025688;28;20044;-70
2023/04/23 18:25:37;;;;;;;0.98;0.70;;;11.00;99.90;;;;;;5058748;28;20083;-69
2023/04/23 18:28:03;;;;;;;1.65;1.00;;;10.90;99.90;;;;;;5058585;28;20308;-69
2023/04/23 18:30:29;;;;;;;1.00;0.80;;;10.90;99.90;;;;;;5058493;28;20017;-68
2023/04/23 18:33:10;;;;;;;0.98;0.90;;;10.80;99.90;;;;;;5058359;28;20037;-68
2023/04/23 18:35:35;;;;;;;2.17;1.13;;;10.80;99.90;;;;;;5058439;28;20029;-70
2023/04/23 18:38:08;;;;;;;1.27;1.10;;;10.90;99.90;;;;;;5058959;28;20040;-70
2023/04/23 18:40:34;;;;;;;1.85;1.23;;;11.00;99.90;;;;;;5058093;28;20029;-68
2023/04/23 18:43:00;;;;;;;1.25;1.15;;;11.10;99.90;;;;;;5041399;28;20040;-68
2023/04/23 18:45:26;;;;;;;2.47;1.77;;;11.10;99.90;;;;;;5059012;28;20031;-70
2023/04/23 18:48:17;;;;;;;2.05;1.85;;;11.10;99.90;;;;;;5059248;28;20043;-69
2023/04/23 18:50:47;;;;;;;2.22;2.03;;;11.10;99.90;;;;;;5038227;28;20022;-68
2023/04/23 18:53:13;;;;;;;2.13;1.77;;;11.20;99.90;;;;;;5054749;28;20039;-69
2023/04/23 18:55:38;;;;;;;3.20;1.83;;;11.20;99.90;;;;;;5041215;28;20451;-67
2023/04/23 18:58:04;;;;;;;2.50;1.95;;;11.20;99.90;;;;;;5058015;28;20039;-70
2023/04/23 19:00:30;;;;;;;1.83;1.35;;;11.10;99.90;;;;;;5057925;28;20041;-67
2023/04/23 19:02:57;;;;;;;1.85;1.50;;;11.00;99.90;;;;;;5058128;28;20159;-66
2023/04/23 19:05:23;;;;;;;1.67;1.58;;;11.00;99.90;;;;;;5058349;28;20090;-65
2023/04/23 19:07:49;;;;;;;1.20;1.10;;;11.10;99.90;;;;;;5040955;28;20120;-66
2023/04/23 19:10:15;;;;;;;2.75;1.40;;;11.00;99.90;;;;;;5057448;28;20375;-68
2023/04/23 19:12:42;;;;;;;4.63;4.10;;;11.00;99.90;;;;;;5058010;28;20387;-69
2023/04/23 19:15:08;;;;;;;6.47;5.30;;;10.90;99.90;;;;;;5058206;28;20044;-67
2023/04/23 19:17:35;;;;;;;5.03;4.18;;;10.70;99.90;;;;;;5024542;28;20033;-73
2023/04/23 19:20:01;;;;;;;2.45;2.25;;;10.70;99.90;;;;;;5058165;28;20024;-63
2023/04/23 19:22:27;;;;;;;1.50;1.40;;;10.60;99.90;;;;;;5057370;28;20048;-69
2023/04/23 19:24:53;;;;;;;2.15;1.55;;;10.50;99.90;;;;;;5058402;28;20024;-66
2023/04/23 19:27:18;;;;;;;3.30;2.50;;;10.40;99.90;;;;;;5057837;28;20021;-68
2023/04/23 19:29:45;;;;;;;3.88;3.15;;;10.40;99.90;;;;;;5057073;28;20025;-60
2023/04/23 19:32:14;;;;;;;4.10;3.25;;;10.30;99.90;;;;;;5058309;28;20094;-68
2023/04/23 19:34:40;;;;;;;4.50;3.25;;;10.20;99.90;;;;;;5040741;28;20396;-72
2023/04/23 19:37:06;;;;;;;4.63;2.88;;;10.10;99.90;;;;;;5057695;28;20130;-72
2023/04/23 19:39:31;;;;;;;3.33;2.63;;;10.10;99.90;;;;;;5057044;28;20124;-68
2023/04/23 19:41:57;;;;;;;5.00;2.83;;;10.10;99.90;;;;;;5056598;28;20408;-69
2023/04/23 19:44:23;;;;;;;4.57;3.38;;;10.10;99.90;;;;;;5040173;28;20041;-70
2023/04/23 19:46:49;;;;;;;5.57;3.50;;;10.10;99.90;;;;;;5089875;28;20036;-67
2023/04/23 19:49:15;;;;;;;3.03;2.72;;;10.10;99.90;;;;;;5089883;28;20037;-67
2023/04/23 19:51:42;;;;;;;4.55;2.40;;;10.10;99.90;;;;;;5090100;28;20040;-70
2023/04/23 19:54:08;;;;;;;2.75;2.10;;;10.20;99.90;;;;;;5073586;28;20319;-68
2023/04/23 19:56:34;;;;;;;2.08;1.52;;;10.20;99.90;;;;;;5057643;28;20045;-70
2023/04/23 19:59:00;;;;;;;1.77;1.50;;;10.20;99.90;;;;;;5090272;28;20304;-68
2023/04/23 20:01:26;;;;;;;2.78;1.40;;;10.30;99.90;;;;;;5057411;28;20299;-65
2023/04/23 20:03:52;;;;;;;5.15;1.58;;;10.30;99.90;;;;;;5072928;28;20049;-66
2023/04/23 20:06:18;;;;;;;1.63;1.20;;;10.30;99.90;;;;;;5073311;28;20033;-67
2023/04/23 20:11:29;;;;;;;1.48;1.38;;;10.30;99.90;;;;;;5057325;28;20072;-66
2023/04/23 20:13:55;;;;;;;2.08;1.30;;;10.30;99.90;;;;;;5089579;28;20311;-68
2023/04/23 20:16:21;;;;;;;2.75;1.63;;;10.30;99.90;;;;;;5090069;28;20052;-69
2023/04/23 20:18:47;;;;;;;2.33;1.48;;;10.40;99.90;;;;;;5090134;28;20410;-69
2023/04/23 20:21:13;;;;;;;2.13;1.92;;;10.40;99.90;;;;;;5090047;28;20040;-68
2023/04/23 20:23:39;;;;;;;2.42;1.50;;;10.50;99.90;;;;;;5039841;28;20032;-68
2023/04/23 20:26:06;;;;;;;2.67;1.60;;;10.50;99.90;;;;;;5089894;28;20025;-64
2023/04/23 20:28:32;;;;;;;5.13;1.65;;;10.40;99.90;;;;;;5089584;28;20036;-71
2023/04/23 20:30:58;;;;;;;1.75;1.65;;;10.30;99.90;;;;;;5089827;28;20029;-69
2023/04/23 20:33:24;;;;;;;4.45;1.70;;;10.40;99.90;;;;;;5056872;28;20419;-70
2023/04/23 20:35:53;;;;;;;2.25;1.25;;;10.40;99.90;;;;;;5056347;28;20063;-68
2023/04/23 20:38:19;;;;;;;1.33;1.13;;;10.40;99.90;;;;;;5056122;28;20037;-74
2023/04/23 20:40:45;;;;;;;1.42;1.33;;;10.50;99.90;;;;;;5089761;28;20033;-69
2023/04/23 20:43:12;;;;;;;2.60;1.48;;;10.50;99.90;;;;;;5056929;28;20033;-71
2023/04/23 20:45:39;;;;;;;1.67;1.50;;;10.60;99.90;;;;;;5089714;28;20033;-72
2023/04/23 20:48:05;;;;;;;2.38;1.63;;;10.60;99.90;;;;;;5056063;28;20316;-67
2023/04/23 20:50:31;;;;;;;2.15;1.92;;;10.50;99.90;;;;;;5055817;28;20108;-65
2023/04/23 20:52:57;;;;;;;3.10;2.05;;;10.40;99.90;;;;;;5055782;28;20132;-63
2023/04/23 20:55:23;;;;;;;2.72;2.40;;;10.50;99.90;;;;;;5039403;28;20033;-64
2023/04/23 20:57:49;;;;;;;2.78;2.38;;;10.50;99.90;;;;;;5055864;28;20285;-63
2023/04/23 21:00:15;;;;;;;2.60;2.40;;;10.50;99.90;;;;;;5056814;28;20029;-64
2023/04/23 21:02:41;;;;;;;2.42;2.22;;;10.60;99.90;;;;;;5056309;28;20060;-65
2023/04/23 21:05:09;;;;;;;2.95;1.70;;;10.50;99.90;;;;;;5035728;28;20044;-63
2023/04/23 21:07:35;;;;;;;1.90;1.58;;;10.40;99.90;;;;;;5055738;28;20033;-64
2023/04/23 21:10:03;;;;;;;1.80;1.52;;;10.40;99.90;;;;;;5022934;28;20033;-65
2023/04/23 21:12:29;;;;;;;1.17;1.00;;;10.50;99.90;;;;;;5055673;28;20029;-63
2023/04/23 21:14:55;;;;;;;1.45;1.00;;;10.50;99.90;;;;;;5055645;28;20040;-64
2023/04/23 21:17:23;;;;;;;1.42;1.20;;;10.40;99.90;;;;;;5056291;28;20400;-62
2023/04/23 21:19:50;;;;;;;5.32;1.30;;;10.30;99.90;;;;;;5039301;28;20323;-70
2023/04/23 21:22:16;;;;;;;1.92;1.40;;;10.30;99.90;;;;;;5055863;28;20036;-65
2023/04/23 21:24:42;;;;;;;1.38;1.27;;;10.30;99.90;;;;;;5056320;28;20067;-67
2023/04/23 21:27:10;;;;;;;1.30;1.20;;;10.30;99.90;;;;;;5060224;28;20387;-69
2023/04/23 21:29:36;;;;;;;3.33;1.42;;;10.50;99.90;;;;;;5060210;28;20032;-69
2023/04/23 21:32:02;;;;;;;2.25;1.27;;;10.50;99.90;;;;;;5060154;28;20068;-69
2023/04/23 21:34:28;;;;;;;1.60;1.30;;;10.40;99.90;;;;;;5060353;28;20068;-67
2023/04/23 21:36:54;;;;;;;2.17;1.13;;;10.30;99.90;;;;;;5042718;28;20029;-63
2023/04/23 21:39:20;;;;;;;2.45;1.20;;;10.20;99.90;;;;;;5059335;28;20044;-66
2023/04/23 21:41:46;;;;;;;1.70;1.60;;;10.30;99.90;;;;;;5059187;28;20299;-67
2023/04/23 21:44:12;;;;;;;2.15;2.03;;;10.30;99.90;;;;;;5042578;28;20123;-67
2023/04/23 21:46:38;;;;;;;2.35;2.15;;;10.40;99.90;;;;;;5059416;28;20048;-63
2023/04/23 21:49:04;;;;;;;3.33;2.55;;;10.30;99.90;;;;;;5059844;28;20033;-65
2023/04/23 21:51:35;;;;;;;4.47;2.85;;;10.40;99.90;;;;;;5060249;28;20032;-66
2023/04/23 21:54:01;;;;;;;3.47;3.17;;;10.40;99.90;;;;;;5059197;28;20052;-65
2023/04/23 21:56:27;;;;;;;8.55;7.13;;;10.30;99.90;;;;;;5058744;28;20047;-67
2023/04/23 21:58:53;;;;;;;11.65;8.50;;;10.20;99.90;;;;;;5092854;28;20040;-68
2023/04/23 22:01:19;;;;;;;10.10;8.98;;;10.20;99.90;;;;;;5059196;28;20041;-69
2023/04/23 22:03:45;;;;;;;15.20;10.85;;;10.20;99.90;;;;;;5092472;28;20040;-66
2023/04/23 22:06:11;;;;;;;18.55;12.02;;;10.20;99.90;;;;;;5075599;28;20048;-64
2023/04/23 22:08:39;;;;;;;15.60;12.35;;;10.20;99.90;;;;;;5075756;28;20025;-66
2023/04/23 22:11:06;;;;;;;20.92;14.95;;;10.20;99.90;;;;;;5092519;28;20120;-65
2023/04/23 22:13:33;;;;;;;22.42;14.05;;;10.10;99.90;;;;;;5058937;28;20033;-66
2023/04/23 22:15:59;;;;;;;22.38;14.88;;;10.00;99.90;;;;;;5060035;28;20277;-66
2023/04/23 22:18:25;;;;;;;23.67;15.60;;;10.10;99.90;;;;;;5059889;28;20047;-65
2023/04/23 22:20:51;;;;;;;25.30;14.75;;;9.90;99.90;;;;;;5092626;28;20107;-70
2023/04/23 22:23:18;;;;;;;21.52;15.13;;;9.90;99.90;;;;;;5059645;28;20124;-71
2023/04/23 22:25:44;;;;;;;18.60;14.57;;;9.90;99.90;;;;;;5092601;28;20043;-68
2023/04/23 22:28:11;;;;;;;23.05;15.38;;;9.80;99.90;;;;;;5092287;28;20025;-63
2023/04/23 22:30:37;;;;;;;22.98;15.63;;;9.80;99.90;;;;;;5059514;28;20029;-67
2023/04/23 22:33:04;;;;;;;22.83;14.85;;;9.90;99.90;;;;;;5059367;28;20029;-67
2023/04/23 22:35:30;;;;;;;22.10;15.18;;;10.00;99.90;;;;;;5074832;28;20120;-69
2023/04/23 22:37:56;;;;;;;20.38;13.73;;;10.00;99.90;;;;;;5058568;28;20053;-71
2023/04/23 22:40:22;;;;;;;22.52;14.55;;;10.00;99.90;;;;;;5058522;28;20045;-68
2023/04/23 22:42:47;;;;;;;19.77;14.23;;;10.00;99.90;;;;;;5091943;28;20327;-69
2023/04/23 22:45:13;;;;;;;26.83;14.93;;;10.00;99.90;;;;;;5092005;28;20063;-65
2023/04/23 22:47:40;;;;;;;21.95;14.68;;;9.90;99.90;;;;;;5059638;28;20304;-66
2023/04/23 22:50:07;;;;;;;25.92;15.55;;;9.90;99.90;;;;;;5058189;28;20059;-66
2023/04/23 22:52:34;;;;;;;23.17;14.85;;;9.90;99.90;;;;;;5074681;28;20041;-65
2023/04/23 22:54:59;;;;;;;22.20;15.18;;;9.90;99.90;;;;;;5092372;28;20376;-63
2023/04/23 22:57:25;;;;;;;21.95;14.27;;;10.00;99.90;;;;;;5058230;28;20037;-65
2023/04/23 22:59:51;;;;;;;23.27;15.23;;;10.00;99.90;;;;;;5074750;28;20075;-66
2023/04/23 23:02:17;;;;;;;23.10;14.13;;;10.00;99.90;;;;;;5058621;28;20273;-67
2023/04/23 23:04:43;;;;;;;22.80;14.38;;;9.90;99.90;;;;;;5091434;28;20037;-65
2023/04/23 23:07:09;;;;;;;24.23;14.27;;;9.90;99.90;;;;;;5058748;28;20029;-64
2023/04/23 23:09:35;;;;;;;22.48;14.18;;;9.90;99.90;;;;;;5058698;28;20044;-64
2023/04/23 23:12:02;;;;;;;23.55;14.82;;;9.90;99.90;;;;;;5074447;28;20404;-68
2023/04/23 23:14:29;;;;;;;23.08;14.70;;;10.00;99.90;;;;;;5058656;28;20033;-69
2023/04/23 23:16:55;;;;;;;20.48;14.50;;;10.00;99.90;;;;;;5091362;28;20079;-65
2023/04/23 23:19:22;;;;;;;26.10;14.55;;;9.90;99.90;;;;;;5091080;28;20033;-66
2023/04/23 23:21:48;;;;;;;24.30;14.25;;;9.90;99.90;;;;;;5091288;28;20029;-66
2023/04/23 23:24:14;;;;;;;21.40;14.10;;;10.00;99.90;;;;;;5090997;28;20123;-64
2023/04/23 23:26:40;;;;;;;22.10;13.98;;;9.90;99.90;;;;;;5091017;28;20049;-66
2023/04/23 23:29:06;;;;;;;32.05;13.98;;;9.90;99.90;;;;;;5057604;28;20063;-64
2023/04/23 23:31:35;;;;;;;20.17;14.02;;;9.90;99.90;;;;;;5074138;28;20043;-66
2023/04/23 23:34:02;;;;;;;26.58;14.32;;;9.90;99.90;;;;;;5073797;28;20068;-64
2023/04/23 23:36:31;;;;;;;23.27;14.48;;;9.90;99.90;;;;;;5073975;28;20036;-65
2023/04/23 23:38:56;;;;;;;25.65;14.68;;;9.80;99.90;;;;;;5058094;28;20033;-69
2023/04/23 23:41:22;;;;;;;25.05;15.90;;;9.80;99.90;;;;;;5073843;28;20029;-66
2023/04/23 23:43:48;;;;;;;21.20;14.38;;;10.00;99.90;;;;;;5057258;28;20112;-72
2023/04/23 23:46:17;;;;;;;26.80;14.73;;;10.00;99.90;;;;;;5090699;28;20106;-64
2023/04/23 23:48:46;;;;;;;24.98;15.10;;;10.10;99.90;;;;;;5072666;28;20024;-63
2023/04/23 23:51:12;;;;;;;27.52;14.95;;;10.00;99.90;;;;;;5057942;28;20447;-63
2023/04/23 23:53:38;;;;;;;21.88;14.77;;;10.00;99.90;;;;;;5090859;28;20040;-70
2023/04/23 23:56:04;;;;;;;23.85;15.35;;;10.10;99.90;;;;;;5057835;28;20029;-63
2023/04/23 23:58:30;;;;;;;22.85;15.75;;;10.00;99.90;;;;;;5056971;28;20125;-65
